Time;durP1;ratioP1;P1;durP2;ratioP2;P2;SDS_P1;SDS_P2;PMS_P1;PMS_P2;Temp;Humidity;BMP_temperature;BMP_pressure;BME280_temperature;BME280_humidity;BME280_pressure;Samples;Min_cycle;Max_cycle;Signal;HPM_P1;HPM_P2
2021/12/12 00:01:00;;;;;;;117.35;37.80;;;3.90;99.90;;;;;;5070298;28;20044;-62
2021/12/12 00:03:38;;;;;;;101.68;33.60;;;3.90;99.90;;;;;;5069876;28;20052;-62
2021/12/12 00:06:16;;;;;;;135.38;41.13;;;3.90;99.90;;;;;;5069936;28;20040;-62
2021/12/12 00:08:45;;;;;;;120.63;38.25;;;4.00;99.90;;;;;;5069739;28;20036;-62
2021/12/12 00:11:15;;;;;;;141.07;40.53;;;4.00;99.90;;;;;;5070009;28;20063;-62
2021/12/12 00:13:56;;;;;;;118.40;36.65;;;4.00;99.90;;;;;;5069478;28;20043;-62
2021/12/12 00:16:21;;;;;;;125.43;37.35;;;4.00;99.90;;;;;;5069647;28;20139;-62
2021/12/12 00:18:47;;;;;;;126.07;39.70;;;4.00;99.90;;;;;;5069623;28;20116;-62
2021/12/12 00:21:16;;;;;;;124.82;38.60;;;4.00;99.90;;;;;;5069684;28;20040;-62
2021/12/12 00:23:42;;;;;;;122.00;39.97;;;4.00;99.90;;;;;;5069476;28;20136;-62
2021/12/12 00:26:07;;;;;;;124.72;39.42;;;4.00;99.90;;;;;;5069618;28;20136;-62
2021/12/12 00:28:34;;;;;;;113.20;40.20;;;4.00;99.90;;;;;;5068750;28;20048;-62
2021/12/12 00:31:08;;;;;;;117.13;38.03;;;4.00;99.90;;;;;;5068917;28;20044;-62
2021/12/12 00:33:36;;;;;;;133.55;40.00;;;4.00;99.90;;;;;;5049043;28;20041;-62
2021/12/12 00:36:02;;;;;;;101.00;33.55;;;4.00;99.90;;;;;;5049449;28;20498;-62
2021/12/12 00:38:31;;;;;;;106.10;34.65;;;4.10;99.90;;;;;;5031445;28;20495;-62
2021/12/12 00:41:02;;;;;;;114.70;35.92;;;4.10;99.90;;;;;;5049497;28;20103;-62
2021/12/12 00:43:45;;;;;;;106.93;36.70;;;4.10;99.90;;;;;;5049230;28;20033;-62
2021/12/12 00:46:11;;;;;;;106.13;37.38;;;4.10;99.90;;;;;;5049267;28;20044;-62
2021/12/12 00:48:39;;;;;;;118.35;38.83;;;4.10;99.90;;;;;;5049260;28;20675;-62
2021/12/12 00:51:08;;;;;;;109.68;36.33;;;4.10;99.90;;;;;;5049336;28;20049;-62
2021/12/12 00:53:34;;;;;;;102.45;34.85;;;4.10;99.90;;;;;;5049195;28;20037;-62
2021/12/12 00:56:00;;;;;;;102.15;35.50;;;4.20;99.90;;;;;;5049192;28;20044;-62
2021/12/12 00:58:26;;;;;;;117.05;40.00;;;4.20;99.90;;;;;;5031261;28;20045;-62
2021/12/12 01:01:01;;;;;;;119.18;37.13;;;4.10;99.90;;;;;;5049271;28;20043;-62
2021/12/12 01:03:31;;;;;;;100.70;36.88;;;4.20;99.90;;;;;;5049142;28;20056;-62
2021/12/12 01:05:58;;;;;;;106.07;36.63;;;4.20;99.90;;;;;;5049152;28;20052;-62
2021/12/12 01:08:25;;;;;;;112.95;38.28;;;4.20;99.90;;;;;;5049167;28;20040;-62
2021/12/12 01:10:59;;;;;;;98.28;37.05;;;4.20;99.90;;;;;;5031251;28;20049;-62
2021/12/12 01:13:25;;;;;;;100.05;31.83;;;4.20;99.90;;;;;;5049025;28;20121;-62
2021/12/12 01:16:01;;;;;;;103.25;36.33;;;4.20;99.90;;;;;;5049219;28;20064;-62
2021/12/12 01:18:30;;;;;;;97.25;32.90;;;4.20;99.90;;;;;;5049004;28;20033;-62
2021/12/12 01:21:11;;;;;;;107.20;38.55;;;4.20;99.90;;;;;;5048785;28;20755;-62
2021/12/12 01:23:42;;;;;;;107.20;36.05;;;4.20;99.90;;;;;;5031048;28;20502;-62
2021/12/12 01:26:08;;;;;;;101.95;34.78;;;4.20;99.90;;;;;;5049161;28;20048;-62
2021/12/12 01:28:39;;;;;;;90.05;33.55;;;4.20;99.90;;;;;;5049089;28;20108;-62
2021/12/12 01:31:09;;;;;;;98.20;33.63;;;4.30;99.90;;;;;;5050398;28;20044;-62
2021/12/12 01:33:36;;;;;;;92.13;33.67;;;4.20;99.90;;;;;;5068750;28;20119;-62
2021/12/12 01:36:23;;;;;;;82.60;32.40;;;4.30;99.90;;;;;;5068726;28;20044;-62
2021/12/12 01:38:54;;;;;;;86.82;32.10;;;4.30;99.90;;;;;;5070292;28;20561;-62
2021/12/12 01:41:30;;;;;;;75.63;30.48;;;4.30;99.90;;;;;;5055068;28;20486;-62
2021/12/12 01:44:03;;;;;;;87.75;30.90;;;4.30;99.90;;;;;;5072547;28;20561;-62
2021/12/12 01:46:46;;;;;;;79.45;31.15;;;4.30;99.90;;;;;;5054745;28;20063;-62
2021/12/12 01:49:19;;;;;;;72.57;28.17;;;4.30;99.90;;;;;;5072932;28;20060;-62
2021/12/12 01:51:46;;;;;;;70.70;27.63;;;4.30;99.90;;;;;;5072524;28;20044;-62
2021/12/12 01:54:15;;;;;;;74.30;29.42;;;4.30;99.90;;;;;;5072087;28;20194;-62
2021/12/12 01:56:53;;;;;;;91.13;33.08;;;4.30;99.90;;;;;;5072533;28;20033;-62
2021/12/12 01:59:24;;;;;;;79.50;31.42;;;4.40;99.90;;;;;;5072405;28;20047;-62
2021/12/12 02:02:07;;;;;;;86.93;33.20;;;4.40;99.90;;;;;;5072402;28;20584;-60
2021/12/12 02:04:41;;;;;;;69.28;27.92;;;4.40;99.90;;;;;;5072260;28;20101;-61
2021/12/12 02:07:10;;;;;;;74.90;27.02;;;4.40;99.90;;;;;;5072277;28;20064;-60
2021/12/12 02:09:37;;;;;;;70.43;28.15;;;4.50;99.90;;;;;;5071918;28;20151;-60
2021/12/12 02:12:04;;;;;;;71.43;28.55;;;4.50;99.90;;;;;;5054296;28;20041;-60
2021/12/12 02:14:35;;;;;;;69.50;27.27;;;4.50;99.90;;;;;;5072076;28;20041;-60
2021/12/12 02:17:12;;;;;;;63.83;27.30;;;4.50;99.90;;;;;;5072155;28;20073;-60
2021/12/12 02:19:50;;;;;;;68.00;27.98;;;4.50;99.90;;;;;;5072018;28;20163;-60
2021/12/12 02:22:36;;;;;;;76.53;26.90;;;4.50;99.90;;;;;;5071638;28;20383;-61
2021/12/12 02:36:10;;;;;;;62.75;25.15;;;4.60;99.90;;;;;;5051793;28;20045;-61
2021/12/12 02:38:36;;;;;;;65.53;24.58;;;4.50;99.90;;;;;;5051549;28;20045;-60
2021/12/12 02:41:12;;;;;;;70.68;24.98;;;4.60;99.90;;;;;;5051908;28;20087;-60
2021/12/12 02:43:45;;;;;;;57.38;24.50;;;4.60;99.90;;;;;;5051501;28;20052;-60
2021/12/12 02:46:14;;;;;;;57.58;24.27;;;4.60;99.90;;;;;;5051605;28;20037;-60
2021/12/12 02:48:42;;;;;;;64.50;23.27;;;4.60;99.90;;;;;;5033766;28;20040;-60
2021/12/12 02:51:15;;;;;;;55.63;22.90;;;4.60;99.90;;;;;;5050356;28;20680;-60
2021/12/12 02:53:52;;;;;;;62.38;23.65;;;4.60;99.90;;;;;;5051362;28;20037;-60
2021/12/12 02:56:25;;;;;;;59.50;23.33;;;4.60;99.90;;;;;;5051326;28;20518;-60
2021/12/12 02:58:51;;;;;;;56.88;21.00;;;4.60;99.90;;;;;;5051359;28;20033;-60
2021/12/12 03:01:55;;;;;;;61.15;22.30;;;4.60;99.90;;;;;;5051481;28;20138;-60
2021/12/12 03:04:21;;;;;;;62.20;24.52;;;4.60;99.90;;;;;;5051319;28;20045;-60
2021/12/12 03:06:47;;;;;;;54.10;22.77;;;4.60;99.90;;;;;;5051181;28;20483;-60
2021/12/12 03:09:18;;;;;;;55.58;21.58;;;4.60;99.90;;;;;;5051176;28;20083;-60
2021/12/12 03:11:46;;;;;;;60.70;23.08;;;4.60;99.90;;;;;;5051053;28;20120;-60
2021/12/12 03:14:12;;;;;;;60.03;22.65;;;4.60;99.90;;;;;;5050814;28;20045;-60
2021/12/12 03:16:39;;;;;;;53.30;22.20;;;4.70;99.90;;;;;;5051134;28;20130;-60
2021/12/12 03:19:06;;;;;;;55.33;22.88;;;4.70;99.90;;;;;;5050835;28;20069;-60
2021/12/12 03:21:35;;;;;;;55.35;21.90;;;4.70;99.90;;;;;;5050902;28;20044;-61
2021/12/12 03:24:11;;;;;;;45.88;20.52;;;4.70;99.90;;;;;;5050706;28;20091;-60
2021/12/12 03:26:38;;;;;;;41.95;18.50;;;4.70;99.90;;;;;;5050559;28;20680;-61
2021/12/12 03:29:05;;;;;;;44.58;20.38;;;4.70;99.90;;;;;;5050532;28;20498;-61
2021/12/12 03:31:37;;;;;;;58.42;22.02;;;4.70;99.90;;;;;;5055587;28;20040;-60
2021/12/12 03:34:09;;;;;;;49.83;21.65;;;4.80;99.90;;;;;;5070470;28;20041;-60
2021/12/12 03:36:35;;;;;;;49.92;20.45;;;4.80;99.90;;;;;;5070446;28;20108;-60
2021/12/12 03:39:07;;;;;;;53.60;20.05;;;4.80;99.90;;;;;;5052256;28;20044;-61
2021/12/12 03:41:36;;;;;;;50.60;20.00;;;4.80;99.90;;;;;;5058296;28;20040;-61
2021/12/12 03:44:07;;;;;;;41.72;19.48;;;4.80;99.90;;;;;;5051223;28;20052;-60
2021/12/12 03:46:34;;;;;;;49.50;19.90;;;4.80;99.90;;;;;;5038717;28;20037;-60
2021/12/12 03:49:00;;;;;;;47.90;19.95;;;4.80;99.90;;;;;;5031111;28;20038;-60
2021/12/12 03:51:28;;;;;;;45.42;20.50;;;4.80;99.90;;;;;;5042113;28;20037;-61
2021/12/12 03:53:55;;;;;;;41.35;18.00;;;4.90;99.90;;;;;;5033017;28;20052;-60
2021/12/12 03:56:21;;;;;;;39.05;16.77;;;4.90;99.90;;;;;;5040247;28;20040;-60
2021/12/12 03:58:48;;;;;;;44.72;19.88;;;4.90;99.90;;;;;;5031072;28;20033;-60
2021/12/12 04:01:31;;;;;;;51.40;20.08;;;4.90;99.90;;;;;;5030871;28;20045;-61
2021/12/12 04:04:01;;;;;;;50.22;19.77;;;4.90;99.90;;;;;;5030518;28;20048;-60
2021/12/12 04:06:29;;;;;;;40.83;17.20;;;4.90;99.90;;;;;;5031098;28;20048;-61
2021/12/12 04:08:55;;;;;;;50.63;19.80;;;4.90;99.90;;;;;;5029578;28;20088;-60
2021/12/12 04:11:25;;;;;;;46.42;19.42;;;4.90;99.90;;;;;;5050387;28;20076;-61
2021/12/12 04:13:53;;;;;;;46.92;19.33;;;4.90;99.90;;;;;;5050327;28;20041;-60
2021/12/12 04:16:20;;;;;;;43.25;18.75;;;4.90;99.90;;;;;;5050632;28;20041;-60
2021/12/12 04:18:46;;;;;;;45.05;18.90;;;5.00;99.90;;;;;;5050398;28;20068;-61
2021/12/12 04:21:16;;;;;;;47.80;20.67;;;4.90;99.90;;;;;;5050637;28;20147;-61
2021/12/12 04:23:42;;;;;;;51.80;19.98;;;5.00;99.90;;;;;;5050238;28;20036;-60
2021/12/12 04:26:19;;;;;;;37.78;18.33;;;5.00;99.90;;;;;;5050635;28;20040;-61
2021/12/12 04:28:58;;;;;;;46.60;19.50;;;5.00;99.90;;;;;;5032489;28;20037;-61
2021/12/12 04:31:24;;;;;;;39.33;16.23;;;5.00;99.90;;;;;;5054276;28;20048;-60
2021/12/12 04:33:52;;;;;;;40.08;18.08;;;4.90;99.90;;;;;;5070082;28;20040;-61
2021/12/12 04:36:17;;;;;;;38.78;18.60;;;4.90;99.90;;;;;;5053404;28;20491;-61
2021/12/12 04:38:43;;;;;;;42.85;19.75;;;4.90;99.90;;;;;;5050122;28;20148;-61
2021/12/12 04:41:09;;;;;;;43.40;19.73;;;4.90;99.90;;;;;;5050155;28;20037;-61
2021/12/12 04:43:35;;;;;;;45.38;20.90;;;5.00;99.90;;;;;;5025102;28;20041;-61
2021/12/12 04:46:11;;;;;;;46.90;22.10;;;5.00;99.90;;;;;;5041063;28;20045;-61
2021/12/12 04:51:46;;;;;;;43.90;19.33;;;5.00;99.90;;;;;;5028073;28;20053;-61
2021/12/12 04:54:26;;;;;;;44.80;21.17;;;5.00;99.90;;;;;;5010895;28;20053;-61
2021/12/12 04:56:58;;;;;;;43.92;18.67;;;5.00;99.90;;;;;;5030078;28;20073;-61
2021/12/12 04:59:34;;;;;;;39.17;16.50;;;5.00;99.90;;;;;;5030150;28;20042;-61
2021/12/12 05:02:31;;;;;;;38.65;18.05;;;5.10;99.90;;;;;;5029766;28;20099;-61
2021/12/12 05:05:00;;;;;;;44.75;19.42;;;5.10;99.90;;;;;;5028769;28;20056;-61
2021/12/12 05:07:50;;;;;;;34.70;16.92;;;5.10;99.90;;;;;;5030070;28;20103;-61
2021/12/12 05:10:26;;;;;;;42.33;20.40;;;5.10;99.90;;;;;;5029885;28;20075;-61
2021/12/12 05:13:04;;;;;;;32.10;17.42;;;5.20;99.90;;;;;;5029086;28;20479;-61
2021/12/12 05:15:36;;;;;;;36.17;18.33;;;5.20;99.90;;;;;;5053905;22;20046;-59
2021/12/12 05:18:08;;;;;;;30.92;15.65;;;5.20;99.90;;;;;;5029876;28;20501;-59
2021/12/12 05:20:37;;;;;;;;;;;5.20;99.90;;;;;;5030337;28;20049;-57
2021/12/12 05:23:07;;;;;;;36.20;19.88;;;5.20;99.90;;;;;;5029336;28;19924;-59
2021/12/12 05:25:50;;;;;;;32.63;16.38;;;5.30;99.90;;;;;;5029821;28;20045;-58
2021/12/12 05:28:19;;;;;;;39.47;18.42;;;5.30;99.90;;;;;;5012332;28;20053;-58
2021/12/12 05:30:46;;;;;;;30.27;14.63;;;5.30;99.90;;;;;;5029480;28;20395;-59
2021/12/12 05:33:15;;;;;;;37.17;18.92;;;5.40;99.90;;;;;;5029392;28;20044;-59
2021/12/12 05:35:42;;;;;;;34.03;16.63;;;5.40;99.90;;;;;;5029301;28;20096;-59
2021/12/12 05:38:10;;;;;;;29.88;16.95;;;5.40;99.90;;;;;;5029608;28;20125;-59
2021/12/12 05:40:39;;;;;;;41.05;19.85;;;5.40;99.90;;;;;;5029873;28;20049;-58
2021/12/12 05:43:06;;;;;;;33.80;17.63;;;5.40;99.90;;;;;;5029550;28;20116;-58
2021/12/12 05:45:34;;;;;;;25.50;13.88;;;5.50;99.90;;;;;;5029331;28;20048;-59
2021/12/12 05:48:01;;;;;;;24.35;14.80;;;5.50;99.90;;;;;;5029419;28;20041;-58
2021/12/12 05:50:27;;;;;;;27.85;13.80;;;5.50;99.90;;;;;;5011672;28;20052;-59
2021/12/12 05:52:54;;;;;;;23.25;13.40;;;5.50;99.90;;;;;;5029375;28;20037;-60
2021/12/12 05:55:24;;;;;;;26.90;16.23;;;5.50;99.90;;;;;;5029488;28;20112;-59
2021/12/12 05:57:54;;;;;;;27.00;16.90;;;5.60;99.90;;;;;;5029492;28;20407;-59
2021/12/12 06:00:26;;;;;;;24.95;13.70;;;5.60;99.90;;;;;;5012106;28;20117;-59
2021/12/12 06:02:53;;;;;;;20.70;11.73;;;5.60;99.90;;;;;;5029166;28;20120;-59
2021/12/12 06:05:19;;;;;;;27.08;14.43;;;5.50;99.90;;;;;;5029338;28;20041;-59
2021/12/12 06:07:45;;;;;;;29.67;16.73;;;5.50;99.90;;;;;;5029371;28;20045;-59
2021/12/12 06:10:14;;;;;;;28.95;14.18;;;5.50;99.90;;;;;;5017782;28;20041;-59
2021/12/12 06:12:40;;;;;;;30.33;17.13;;;5.60;99.90;;;;;;5009573;28;20049;-59
2021/12/12 06:15:09;;;;;;;29.13;15.50;;;5.60;99.90;;;;;;5009138;28;20077;-59
2021/12/12 06:17:36;;;;;;;28.80;14.80;;;5.60;99.90;;;;;;5009336;28;20042;-59
2021/12/12 06:20:07;;;;;;;24.55;13.38;;;5.60;99.90;;;;;;4991940;28;20049;-59
2021/12/12 06:22:33;;;;;;;30.42;15.90;;;5.60;99.90;;;;;;5009549;28;20042;-59
2021/12/12 06:24:59;;;;;;;22.67;13.23;;;5.60;99.90;;;;;;4991744;28;20113;-59
2021/12/12 06:27:25;;;;;;;33.30;15.75;;;5.60;99.90;;;;;;5012852;28;20112;-59
2021/12/12 06:29:54;;;;;;;31.30;15.90;;;5.70;99.90;;;;;;4994971;28;20049;-59
2021/12/12 06:32:20;;;;;;;35.00;17.33;;;5.70;99.90;;;;;;5024280;28;20037;-57
2021/12/12 06:34:48;;;;;;;25.52;13.05;;;5.70;99.90;;;;;;5032724;28;20514;-59
2021/12/12 06:37:15;;;;;;;32.60;15.38;;;5.70;99.90;;;;;;5032324;28;20037;-60
2021/12/12 06:39:43;;;;;;;26.75;13.27;;;5.70;99.90;;;;;;5032519;28;20099;-58
2021/12/12 06:42:11;;;;;;;30.90;15.48;;;5.70;99.90;;;;;;5032216;28;20495;-59
2021/12/12 06:44:39;;;;;;;29.55;14.48;;;5.70;99.90;;;;;;5032445;28;20049;-58
2021/12/12 06:47:08;;;;;;;29.52;14.95;;;5.80;99.90;;;;;;5014381;28;20463;-59
2021/12/12 06:49:34;;;;;;;26.70;13.75;;;5.80;99.90;;;;;;5014502;28;20048;-59
2021/12/12 06:52:03;;;;;;;29.38;14.38;;;5.80;99.90;;;;;;5031831;28;20128;-59
2021/12/12 06:54:30;;;;;;;32.72;14.95;;;5.80;99.90;;;;;;5032301;28;20038;-59
2021/12/12 06:57:00;;;;;;;23.98;12.55;;;5.90;99.90;;;;;;5031802;28;20064;-60
2021/12/12 06:59:29;;;;;;;27.75;13.40;;;5.90;99.90;;;;;;5032033;28;20457;-59
2021/12/12 07:01:56;;;;;;;28.83;13.18;;;5.90;99.90;;;;;;5028914;28;20756;-59
2021/12/12 07:04:22;;;;;;;33.75;17.23;;;5.90;99.90;;;;;;5028981;28;20095;-59
2021/12/12 07:06:54;;;;;;;32.83;14.85;;;6.00;99.90;;;;;;5029068;28;20099;-59
2021/12/12 07:09:20;;;;;;;27.55;12.65;;;5.90;99.90;;;;;;5028665;28;20492;-59
2021/12/12 07:11:46;;;;;;;29.17;13.73;;;6.00;99.90;;;;;;5029123;28;20068;-59
2021/12/12 07:14:14;;;;;;;27.75;12.48;;;6.00;99.90;;;;;;5028296;28;20068;-59
2021/12/12 07:16:41;;;;;;;38.00;16.85;;;6.00;99.90;;;;;;5028819;28;20041;-59
2021/12/12 07:19:07;;;;;;;31.58;13.43;;;6.00;99.90;;;;;;5028870;28;20052;-59
2021/12/12 07:21:33;;;;;;;33.22;14.57;;;6.00;99.90;;;;;;5028296;28;20037;-60
2021/12/12 07:24:01;;;;;;;36.28;16.08;;;6.10;99.90;;;;;;5028217;28;20462;-61
2021/12/12 07:26:28;;;;;;;35.05;15.18;;;6.10;99.90;;;;;;5010587;28;20053;-59
2021/12/12 07:28:56;;;;;;;31.77;14.25;;;6.10;99.90;;;;;;5028673;28;20073;-59
2021/12/12 07:31:30;;;;;;;36.10;15.20;;;6.10;99.90;;;;;;5024703;28;20539;-59
2021/12/12 07:33:58;;;;;;;34.25;15.18;;;6.10;99.90;;;;;;4991103;28;20111;-58
2021/12/12 07:36:24;;;;;;;40.95;18.27;;;6.10;99.90;;;;;;5008023;28;20125;-59
2021/12/12 07:38:58;;;;;;;43.83;17.33;;;6.10;99.90;;;;;;5008275;28;20080;-59
2021/12/12 07:41:28;;;;;;;40.47;15.82;;;6.20;99.90;;;;;;5008435;28;20041;-59
2021/12/12 07:43:55;;;;;;;32.47;14.38;;;6.10;99.90;;;;;;5008213;28;20038;-59
2021/12/12 07:46:21;;;;;;;37.40;16.27;;;6.20;99.90;;;;;;5008380;28;20081;-59
2021/12/12 07:48:50;;;;;;;44.08;18.20;;;6.20;99.90;;;;;;5007848;28;20266;-60
2021/12/12 07:51:17;;;;;;;39.70;16.83;;;6.20;99.90;;;;;;4990580;28;20050;-60
2021/12/12 07:53:43;;;;;;;41.38;18.02;;;6.20;99.90;;;;;;5007958;28;20516;-60
2021/12/12 07:56:09;;;;;;;38.00;14.30;;;6.30;99.90;;;;;;4991184;28;20044;-60
2021/12/12 07:58:36;;;;;;;42.85;15.73;;;6.30;99.90;;;;;;5008427;28;20440;-60
2021/12/12 08:01:04;;;;;;;39.20;14.95;;;6.30;99.90;;;;;;5008109;28;20225;-60
2021/12/12 08:03:32;;;;;;;45.72;17.63;;;6.30;99.90;;;;;;5007665;28;20053;-60
2021/12/12 08:06:02;;;;;;;52.60;18.50;;;6.40;99.90;;;;;;4990478;28;20041;-60
2021/12/12 08:08:29;;;;;;;45.58;17.08;;;6.40;99.90;;;;;;4990832;28;20414;-60
2021/12/12 08:10:57;;;;;;;46.25;18.48;;;6.40;99.90;;;;;;5007967;28;20042;-61
2021/12/12 08:13:23;;;;;;;39.20;14.00;;;6.40;99.90;;;;;;4989590;28;20046;-60
2021/12/12 08:15:49;;;;;;;54.78;18.98;;;6.40;99.90;;;;;;5007987;28;20048;-60
2021/12/12 08:18:16;;;;;;;49.08;17.40;;;6.50;99.90;;;;;;5008019;28;20373;-60
2021/12/12 08:20:45;;;;;;;52.20;18.50;;;6.50;99.90;;;;;;5008081;28;20041;-60
2021/12/12 08:23:11;;;;;;;38.78;15.40;;;6.50;99.90;;;;;;5008941;28;20506;-61
2021/12/12 08:25:38;;;;;;;52.13;17.98;;;6.50;99.90;;;;;;5010661;28;20042;-61
2021/12/12 08:28:05;;;;;;;35.65;14.88;;;6.50;99.90;;;;;;5010808;28;20037;-60
2021/12/12 08:30:32;;;;;;;37.08;14.02;;;6.50;99.90;;;;;;4993023;28;20046;-58
2021/12/12 08:32:58;;;;;;;39.65;15.80;;;6.60;99.90;;;;;;5026991;28;20040;-60
2021/12/12 08:35:27;;;;;;;44.67;17.58;;;6.60;99.90;;;;;;5030250;28;20040;-60
2021/12/12 08:37:53;;;;;;;43.33;15.93;;;6.60;99.90;;;;;;5030398;28;20053;-61
2021/12/12 08:40:23;;;;;;;44.17;17.85;;;6.60;99.90;;;;;;5030167;28;20047;-59
2021/12/12 08:42:50;;;;;;;45.95;17.45;;;6.70;99.90;;;;;;5030165;28;20037;-60
2021/12/12 08:45:19;;;;;;;42.40;17.65;;;6.70;99.90;;;;;;5029922;28;20037;-60
2021/12/12 08:47:47;;;;;;;43.03;16.85;;;6.70;99.90;;;;;;5029670;28;20045;-60
2021/12/12 08:50:16;;;;;;;38.00;15.77;;;6.80;99.90;;;;;;5029872;28;20123;-60
2021/12/12 08:52:44;;;;;;;40.75;15.85;;;6.80;99.90;;;;;;5029693;28;20060;-60
2021/12/12 08:55:18;;;;;;;36.17;13.95;;;6.80;99.90;;;;;;5011414;28;20049;-60
2021/12/12 08:57:59;;;;;;;31.27;13.85;;;6.80;99.90;;;;;;5022739;28;20403;-59
2021/12/12 09:00:30;;;;;;;33.38;13.25;;;6.90;99.90;;;;;;4990221;28;20544;-60
2021/12/12 09:02:56;;;;;;;40.03;14.32;;;6.90;99.90;;;;;;5009895;28;20041;-60
2021/12/12 09:05:27;;;;;;;34.08;15.90;;;6.90;99.90;;;;;;5009855;28;20034;-60
2021/12/12 09:07:57;;;;;;;31.95;14.20;;;7.00;99.90;;;;;;5009869;28;20042;-60
2021/12/12 09:10:29;;;;;;;35.78;15.82;;;7.00;99.90;;;;;;5005898;28;20091;-60
2021/12/12 09:13:05;;;;;;;33.05;13.20;;;7.00;99.90;;;;;;5010383;28;20038;-59
2021/12/12 09:15:40;;;;;;;34.30;13.70;;;7.00;99.90;;;;;;5008267;28;20046;-59
2021/12/12 09:18:28;;;;;;;33.30;13.82;;;7.00;99.90;;;;;;5001026;28;20026;-60
2021/12/12 09:21:06;;;;;;;40.00;14.48;;;7.10;99.90;;;;;;5007163;28;20038;-60
2021/12/12 09:23:39;;;;;;;45.67;16.27;;;7.10;99.90;;;;;;4992052;28;20045;-60
2021/12/12 09:26:08;;;;;;;37.05;13.75;;;7.10;99.90;;;;;;5009618;28;20042;-60
2021/12/12 09:28:45;;;;;;;38.05;15.35;;;7.10;99.90;;;;;;5007109;28;20038;-60
2021/12/12 09:31:16;;;;;;;38.25;13.70;;;7.20;99.90;;;;;;5010970;28;20033;-60
2021/12/12 09:33:58;;;;;;;38.47;14.48;;;7.20;99.90;;;;;;5009604;28;20101;-60
2021/12/12 09:36:34;;;;;;;39.15;14.60;;;7.20;99.90;;;;;;5008890;28;20038;-60
2021/12/12 09:39:10;;;;;;;34.45;14.15;;;7.20;99.90;;;;;;5006353;28;20049;-58
2021/12/12 09:42:04;;;;;;;40.08;15.25;;;7.20;99.90;;;;;;5008422;28;20045;-60
2021/12/12 09:44:44;;;;;;;36.45;13.57;;;7.20;99.90;;;;;;5005437;28;20054;-59
2021/12/12 09:47:30;;;;;;;42.70;15.00;;;7.30;99.90;;;;;;5007795;28;20562;-60
2021/12/12 09:53:18;;;;;;;43.47;15.70;;;7.30;99.90;;;;;;5007006;28;20041;-60
2021/12/12 09:55:51;;;;;;;43.80;14.55;;;7.40;99.90;;;;;;5006966;28;20053;-60
2021/12/12 09:58:28;;;;;;;43.95;15.85;;;7.40;99.90;;;;;;4988789;28;20034;-60
2021/12/12 10:01:03;;;;;;;35.00;13.50;;;7.40;99.90;;;;;;5012350;28;20041;-60
2021/12/12 10:03:45;;;;;;;42.13;17.52;;;7.50;99.90;;;;;;4995613;28;20045;-60
2021/12/12 10:06:33;;;;;;;41.70;15.93;;;7.50;99.90;;;;;;5012611;28;20037;-60
2021/12/12 10:09:16;;;;;;;32.13;12.07;;;7.50;99.90;;;;;;4992325;28;20048;-60
2021/12/12 10:12:02;;;;;;;44.45;15.27;;;7.60;99.90;;;;;;5012757;28;20046;-60
2021/12/12 10:14:41;;;;;;;43.53;14.48;;;7.60;99.90;;;;;;5013115;28;20401;-60
2021/12/12 10:17:48;;;;;;;46.33;15.35;;;7.60;99.90;;;;;;5013200;28;20444;-60
2021/12/12 10:20:38;;;;;;;39.25;13.30;;;7.70;99.90;;;;;;5012355;28;20116;-59
2021/12/12 10:23:27;;;;;;;41.20;15.05;;;7.70;99.90;;;;;;5008545;28;20104;-60
2021/12/12 10:26:00;;;;;;;42.28;15.20;;;7.70;99.90;;;;;;5009401;28;20037;-60
2021/12/12 10:28:32;;;;;;;41.55;14.90;;;7.80;99.90;;;;;;5009931;28;20573;-60
2021/12/12 10:31:22;;;;;;;40.53;13.57;;;7.80;99.90;;;;;;5010381;28;20041;-59
2021/12/12 10:34:08;;;;;;;43.33;15.48;;;7.90;99.90;;;;;;5028998;28;20034;-59
2021/12/12 10:37:05;;;;;;;40.35;14.52;;;7.90;99.90;;;;;;5011980;28;20072;-59
2021/12/12 10:39:42;;;;;;;35.83;12.63;;;7.90;99.90;;;;;;5028181;28;20053;-59
2021/12/12 10:42:14;;;;;;;41.75;15.20;;;8.00;99.90;;;;;;5029235;28;20099;-59
2021/12/12 10:44:47;;;;;;;37.92;13.65;;;8.00;99.90;;;;;;5029314;28;20494;-59
2021/12/12 10:47:16;;;;;;;36.13;13.00;;;8.00;99.90;;;;;;5011763;28;20053;-59
2021/12/12 10:50:00;;;;;;;38.35;13.98;;;8.00;99.90;;;;;;5029223;28;20041;-59
2021/12/12 10:52:33;;;;;;;39.95;13.75;;;8.10;99.90;;;;;;5028682;28;20049;-59
2021/12/12 10:55:09;;;;;;;43.17;14.90;;;8.10;99.90;;;;;;5029233;28;20053;-59
2021/12/12 10:57:37;;;;;;;38.78;14.32;;;8.20;99.90;;;;;;5028701;28;20041;-60
2021/12/12 11:00:09;;;;;;;35.22;12.70;;;8.20;99.90;;;;;;5011545;28;20057;-60
2021/12/12 11:02:44;;;;;;;38.47;14.82;;;8.20;99.90;;;;;;5011215;28;20060;-59
2021/12/12 11:05:18;;;;;;;33.47;12.52;;;8.20;99.90;;;;;;5028736;28;20503;-59
2021/12/12 11:07:56;;;;;;;33.80;12.55;;;8.30;99.90;;;;;;5029064;28;20706;-59
2021/12/12 11:10:27;;;;;;;32.60;13.85;;;8.30;99.90;;;;;;5028686;28;20084;-58
2021/12/12 11:13:17;;;;;;;31.98;12.43;;;8.30;99.90;;;;;;5027967;28;20112;-60
2021/12/12 11:16:20;;;;;;;29.65;11.90;;;8.30;99.90;;;;;;5028510;28;20041;-59
2021/12/12 11:18:54;;;;;;;31.35;13.15;;;8.40;99.90;;;;;;5025750;28;20622;-59
2021/12/12 11:21:36;;;;;;;30.48;12.88;;;8.40;99.90;;;;;;5010802;28;20092;-58
2021/12/12 11:24:14;;;;;;;31.83;12.32;;;8.40;99.90;;;;;;5028400;28;20055;-59
2021/12/12 11:27:10;;;;;;;29.40;13.32;;;8.40;99.90;;;;;;5028590;28;20045;-59
2021/12/12 11:29:45;;;;;;;27.42;11.90;;;8.40;99.90;;;;;;5028708;28;20056;-58
2021/12/12 11:32:16;;;;;;;32.03;12.82;;;8.40;99.90;;;;;;5051517;22;20547;-62
2021/12/12 11:34:45;;;;;;;35.53;13.40;;;8.40;99.90;;;;;;5030502;28;20041;-62
2021/12/12 11:37:24;;;;;;;26.63;11.60;;;8.40;99.90;;;;;;5013663;28;20046;-62
2021/12/12 11:39:55;;;;;;;32.72;12.63;;;8.50;99.90;;;;;;5010353;28;20041;-62
2021/12/12 11:42:37;;;;;;;30.00;13.25;;;8.50;99.90;;;;;;5031134;28;20499;-62
2021/12/12 11:45:20;;;;;;;27.30;11.82;;;8.50;99.90;;;;;;5031461;28;20029;-62
2021/12/12 11:48:13;;;;;;;32.60;13.65;;;8.50;99.90;;;;;;5031343;28;20049;-62
2021/12/12 11:50:55;;;;;;;32.97;12.63;;;8.60;99.90;;;;;;5030878;28;20045;-62
2021/12/12 11:53:35;;;;;;;32.17;12.15;;;8.60;99.90;;;;;;5031199;28;20037;-62
2021/12/12 11:56:07;;;;;;;30.33;12.88;;;8.60;99.90;;;;;;5013390;28;20491;-62
2021/12/12 11:58:55;;;;;;;29.90;11.65;;;8.60;99.90;;;;;;5031131;28;20083;-62
2021/12/12 12:01:36;;;;;;;33.95;13.07;;;8.70;99.90;;;;;;4991476;28;20046;-62
2021/12/12 12:04:20;;;;;;;36.47;12.82;;;8.70;99.90;;;;;;5021062;28;20033;-62
2021/12/12 12:07:04;;;;;;;36.08;14.38;;;8.70;99.90;;;;;;5018775;28;20083;-62
2021/12/12 12:09:48;;;;;;;37.45;13.68;;;8.70;99.90;;;;;;5019964;28;20033;-62
2021/12/12 12:12:40;;;;;;;36.10;13.85;;;8.70;99.90;;;;;;4991170;28;20038;-62
2021/12/12 12:15:11;;;;;;;37.75;13.60;;;8.80;99.90;;;;;;4991543;28;20047;-62
2021/12/12 12:17:57;;;;;;;37.03;13.25;;;8.80;99.90;;;;;;5013302;28;20033;-62
2021/12/12 12:20:42;;;;;;;36.00;13.13;;;8.80;99.90;;;;;;5030680;28;20103;-62
2021/12/12 12:23:41;;;;;;;36.88;13.35;;;8.80;99.90;;;;;;5030544;28;20059;-62
2021/12/12 12:29:02;;;;;;;32.53;12.82;;;8.80;99.90;;;;;;4993252;28;20045;-62
2021/12/12 12:31:34;;;;;;;40.70;12.40;;;8.80;99.90;;;;;;4995229;28;20046;-62
2021/12/12 12:34:18;;;;;;;35.72;12.68;;;8.80;99.90;;;;;;5018794;28;20054;-62
2021/12/12 12:37:36;;;;;;;37.75;13.20;;;8.90;99.90;;;;;;5018252;28;20062;-64
2021/12/12 12:40:39;;;;;;;45.40;13.80;;;8.90;99.90;;;;;;5017119;28;20411;-64
2021/12/12 12:43:42;;;;;;;39.53;13.77;;;8.90;99.90;;;;;;5018265;28;20514;-64
2021/12/12 12:46:35;;;;;;;43.00;14.25;;;8.90;99.90;;;;;;5019222;28;20062;-65
2021/12/12 12:49:46;;;;;;;42.03;13.93;;;9.00;99.90;;;;;;4997615;28;20041;-65
2021/12/12 12:52:49;;;;;;;40.28;14.27;;;9.00;99.90;;;;;;5000717;28;20099;-65
2021/12/12 12:55:34;;;;;;;38.80;13.23;;;9.00;99.90;;;;;;5002828;28;20576;-65
2021/12/12 12:58:21;;;;;;;38.90;13.15;;;9.10;99.90;;;;;;5017653;28;20474;-65
2021/12/12 13:00:49;;;;;;;40.65;13.68;;;9.10;99.90;;;;;;5020272;28;20495;-66
2021/12/12 13:03:19;;;;;;;45.08;14.27;;;9.10;99.90;;;;;;5020388;28;20129;-65
2021/12/12 13:06:07;;;;;;;43.28;13.45;;;9.10;99.90;;;;;;5017979;28;20112;-65
2021/12/12 13:09:14;;;;;;;40.15;13.25;;;9.10;99.90;;;;;;5015987;28;20068;-65
2021/12/12 13:11:47;;;;;;;42.20;13.40;;;9.10;99.90;;;;;;5016126;28;20048;-65
2021/12/12 13:14:51;;;;;;;44.35;14.05;;;9.20;99.90;;;;;;5011370;28;20046;-65
2021/12/12 13:17:30;;;;;;;46.38;14.50;;;9.20;99.90;;;;;;5029871;28;20048;-64
2021/12/12 13:20:08;;;;;;;41.70;13.88;;;9.20;99.90;;;;;;5011849;28;20050;-63
2021/12/12 13:22:45;;;;;;;38.85;14.02;;;9.30;99.90;;;;;;5017046;28;20042;-64
2021/12/12 13:25:32;;;;;;;39.42;13.88;;;9.30;99.90;;;;;;5025562;28;20037;-63
2021/12/12 13:28:18;;;;;;;40.35;13.90;;;9.30;99.90;;;;;;5017516;28;20030;-64